createdAt,value
2023-06-15T00:03:45.342Z,22.10
2023-06-15T00:08:50.897Z,22.10
2023-06-15T00:13:55.062Z,22.10
2023-06-15T00:18:59.661Z,22.00
2023-06-15T00:24:05.683Z,22.00
2023-06-15T00:29:09.778Z,21.90
2023-06-15T00:34:13.976Z,21.90
2023-06-15T00:39:20.033Z,21.80
2023-06-15T00:44:24.135Z,21.80
2023-06-15T00:49:28.668Z,21.80
2023-06-15T00:54:36.075Z,21.70
2023-06-15T00:59:40.793Z,21.70
2023-06-15T01:04:44.842Z,21.60
2023-06-15T01:09:50.659Z,21.60
2023-06-15T01:14:54.873Z,21.60
2023-06-15T01:20:10.219Z,21.50
2023-06-15T01:25:30.825Z,21.50
2023-06-15T01:30:42.930Z,21.40
2023-06-15T01:35:47.144Z,21.40
2023-06-15T01:40:54.375Z,21.40
2023-06-15T01:46:02.376Z,21.30
2023-06-15T01:51:07.207Z,21.30
2023-06-15T01:56:11.434Z,21.30
2023-06-15T02:01:18.012Z,21.30
2023-06-15T02:06:22.078Z,21.20
2023-06-15T02:11:27.246Z,21.20
2023-06-15T02:16:33.346Z,21.20
2023-06-15T02:21:37.462Z,21.10
2023-06-15T02:26:42.455Z,21.10
2023-06-15T02:31:47.871Z,21.00
2023-06-15T02:36:54.710Z,21.00
2023-06-15T02:41:58.783Z,20.90
2023-06-15T02:47:04.180Z,20.90
2023-06-15T02:52:10.022Z,20.90
2023-06-15T02:57:14.392Z,20.80
2023-06-15T03:02:33.188Z,20.80
2023-06-15T03:07:37.341Z,20.80
2023-06-15T03:13:04.615Z,20.70
2023-06-15T03:18:10.464Z,20.70
2023-06-15T03:23:15.208Z,20.60
2023-06-15T03:28:19.863Z,20.60
2023-06-15T03:33:25.975Z,20.60
2023-06-15T03:38:30.779Z,20.50
2023-06-15T03:43:34.912Z,20.50
2023-06-15T03:48:41.156Z,20.50
2023-06-15T03:53:45.737Z,20.40
2023-06-15T03:58:49.926Z,20.40
2023-06-15T04:03:55.748Z,20.40
2023-06-15T04:08:59.990Z,20.40
2023-06-15T04:14:04.371Z,20.30
2023-06-15T04:19:11.034Z,20.30
2023-06-15T04:24:15.989Z,20.30
2023-06-15T04:29:20.282Z,20.30
2023-06-15T04:34:27.684Z,20.30
2023-06-15T04:39:32.427Z,20.20
2023-06-15T04:44:39.610Z,20.20
2023-06-15T04:49:45.378Z,20.20
2023-06-15T04:54:50.837Z,20.20
2023-06-15T04:59:55.100Z,20.20
2023-06-15T05:05:00.658Z,20.20
2023-06-15T05:10:06.262Z,20.20
2023-06-15T05:15:13.743Z,20.20
2023-06-15T05:20:19.541Z,20.20
2023-06-15T05:25:23.801Z,20.20
2023-06-15T05:30:28.381Z,20.20
2023-06-15T05:35:36.027Z,20.20
2023-06-15T05:40:40.172Z,20.20
2023-06-15T05:45:45.817Z,20.20
2023-06-15T05:50:52.390Z,20.20
2023-06-15T05:55:56.842Z,20.30
2023-06-15T06:01:01.104Z,20.30
2023-06-15T06:06:07.111Z,20.40
2023-06-15T06:11:11.248Z,20.40
2023-06-15T06:16:21.607Z,20.40
2023-06-15T06:21:27.374Z,20.40
2023-06-15T06:26:31.649Z,20.50
2023-06-15T06:31:35.691Z,20.50
2023-06-15T06:36:41.727Z,20.60
2023-06-15T06:41:46.694Z,20.70
2023-06-15T06:46:50.942Z,20.70
2023-06-15T06:51:56.312Z,20.70
2023-06-15T06:57:00.339Z,20.80
2023-06-15T07:02:04.439Z,20.90
2023-06-15T07:07:09.883Z,21.00
2023-06-15T07:12:14.106Z,21.00
2023-06-15T07:17:18.137Z,21.20
2023-06-15T07:22:24.825Z,21.30
2023-06-15T07:27:28.742Z,21.30
2023-06-15T07:32:32.768Z,21.40
2023-06-15T07:37:38.352Z,21.50
2023-06-15T07:42:42.284Z,21.60
2023-06-15T07:47:46.558Z,21.70
2023-06-15T07:52:53.370Z,21.80
2023-06-15T07:57:57.513Z,22.00
2023-06-15T08:03:01.708Z,22.10
2023-06-15T08:08:07.616Z,22.20
2023-06-15T08:13:11.865Z,22.30
2023-06-15T08:18:16.614Z,22.40
2023-06-15T08:23:22.843Z,22.50
2023-06-15T08:28:26.972Z,22.60
2023-06-15T08:33:32.429Z,22.70
2023-06-15T08:38:37.872Z,22.80
2023-06-15T08:43:45.807Z,22.90
2023-06-15T08:48:53.561Z,23.00
2023-06-15T08:53:59.421Z,23.10
2023-06-15T08:59:03.489Z,23.20
2023-06-15T09:04:07.941Z,23.30
2023-06-15T09:09:13.494Z,23.40
2023-06-15T09:14:17.651Z,23.50
2023-06-15T09:19:22.678Z,23.60
2023-06-15T09:24:28.694Z,23.70
2023-06-15T09:29:32.764Z,23.90
2023-06-15T09:34:37.955Z,24.00
2023-06-15T09:39:47.410Z,24.10
2023-06-15T09:44:55.647Z,24.20
2023-06-15T09:50:00.714Z,24.20
2023-06-15T09:55:10.040Z,24.30
2023-06-15T10:00:16.338Z,24.30
2023-06-15T10:05:28.929Z,24.40
2023-06-15T10:10:35.929Z,24.40
2023-06-15T10:15:40.828Z,24.40
2023-06-15T10:20:45.213Z,24.40
2023-06-15T10:25:52.891Z,24.40
2023-06-15T10:31:06.949Z,24.40
2023-06-15T10:36:22.235Z,24.60
2023-06-15T10:41:28.624Z,24.70
2023-06-15T10:46:33.537Z,24.80
2023-06-15T10:51:41.428Z,25.00
2023-06-15T10:56:54.845Z,25.10
2023-06-15T11:01:58.865Z,25.20
2023-06-15T11:07:05.437Z,25.10
2023-06-15T11:12:38.795Z,25.20
2023-06-15T11:18:04.314Z,25.10
2023-06-15T11:23:12.306Z,25.10
2023-06-15T11:28:35.120Z,25.20
2023-06-15T11:33:42.807Z,25.20
2023-06-15T11:38:46.890Z,25.10
2023-06-15T11:43:53.531Z,25.20
2023-06-15T11:48:59.358Z,25.40
2023-06-15T11:54:05.162Z,25.50
2023-06-15T11:59:11.151Z,25.60
2023-06-15T12:04:15.512Z,25.70
2023-06-15T12:09:21.677Z,25.80
2023-06-15T12:14:28.052Z,25.80
2023-06-15T12:19:32.231Z,25.90
2023-06-15T12:24:42.122Z,26.00
2023-06-15T12:29:47.570Z,26.10
2023-06-15T12:34:53.225Z,26.10
2023-06-15T12:39:57.440Z,26.10
2023-06-15T12:45:02.802Z,26.10
2023-06-15T12:50:08.936Z,26.10
2023-06-15T12:55:13.475Z,25.90
2023-06-15T13:00:21.969Z,25.90
2023-06-15T13:05:26.094Z,25.90
2023-06-15T13:10:30.668Z,26.00
2023-06-15T13:15:38.715Z,26.10
2023-06-15T13:20:42.890Z,26.10
2023-06-15T13:25:47.258Z,26.10
2023-06-15T13:30:53.006Z,26.10
2023-06-15T13:35:58.497Z,26.00
2023-06-15T13:41:02.582Z,26.00
2023-06-15T13:46:08.063Z,25.90
2023-06-15T13:51:12.419Z,25.90
2023-06-15T13:56:16.698Z,26.00
2023-06-15T14:01:24.426Z,26.00
2023-06-15T14:06:28.914Z,26.00
2023-06-15T14:11:32.931Z,26.00
2023-06-15T14:16:38.483Z,26.00
2023-06-15T14:21:42.599Z,25.90
2023-06-15T14:26:47.586Z,25.90
2023-06-15T14:31:53.025Z,25.90
2023-06-15T14:36:57.140Z,25.90
2023-06-15T14:42:01.159Z,25.90
2023-06-15T14:47:06.778Z,25.80
2023-06-15T14:52:11.659Z,25.80
2023-06-15T14:57:15.874Z,25.80
2023-06-15T15:02:21.492Z,25.80
2023-06-15T15:07:25.592Z,25.80
2023-06-15T15:12:30.439Z,25.80
2023-06-15T15:17:35.945Z,25.70
2023-06-15T15:22:40.737Z,25.70
2023-06-15T15:27:44.888Z,25.60
2023-06-15T15:32:52.114Z,25.60
2023-06-15T15:37:56.158Z,25.50
2023-06-15T15:43:01.916Z,25.50
2023-06-15T15:48:10.215Z,25.50
2023-06-15T15:53:14.569Z,25.50
2023-06-15T15:58:18.593Z,25.50
2023-06-15T16:03:24.455Z,25.40
2023-06-15T16:08:28.703Z,25.40
2023-06-15T16:13:32.693Z,25.40
2023-06-15T16:18:38.084Z,25.40
2023-06-15T16:23:42.142Z,25.40
2023-06-15T16:28:47.965Z,25.40
2023-06-15T16:33:53.513Z,25.40
2023-06-15T16:38:57.588Z,25.40
2023-06-15T16:44:01.607Z,25.40
2023-06-15T16:49:07.239Z,25.30
2023-06-15T16:54:11.498Z,25.40
2023-06-15T16:59:15.645Z,25.30
2023-06-15T17:04:21.088Z,25.30
2023-06-15T17:09:26.402Z,25.30
2023-06-15T17:14:30.549Z,25.30
2023-06-15T17:19:36.372Z,25.30
2023-06-15T17:24:40.551Z,25.30
2023-06-15T17:29:45.255Z,25.30
2023-06-15T17:34:50.930Z,25.30
2023-06-15T17:39:55.321Z,25.30
2023-06-15T17:45:00.349Z,25.30
2023-06-15T17:50:06.980Z,25.20
2023-06-15T17:55:11.563Z,25.20
2023-06-15T18:00:17.340Z,25.20
2023-06-15T18:05:24.140Z,25.10
2023-06-15T18:10:28.424Z,25.20
2023-06-15T18:15:34.253Z,25.10
2023-06-15T18:20:40.777Z,25.10
2023-06-15T18:25:44.853Z,25.10
2023-06-15T18:30:48.998Z,25.10
2023-06-15T18:35:54.614Z,25.10
2023-06-15T18:40:59.358Z,25.00
2023-06-15T18:46:04.432Z,25.00
2023-06-15T18:51:09.789Z,24.90
2023-06-15T18:56:13.873Z,24.90
2023-06-15T19:01:17.963Z,24.80
2023-06-15T19:06:23.525Z,24.80
2023-06-15T19:11:30.150Z,24.80
2023-06-15T19:16:34.499Z,24.70
2023-06-15T19:21:40.660Z,24.70
2023-06-15T19:26:44.806Z,24.70
2023-06-15T19:31:49.857Z,24.60
2023-06-15T19:36:58.068Z,24.50
2023-06-15T19:42:02.335Z,24.50
2023-06-15T19:47:07.641Z,24.40
2023-06-15T19:52:12.975Z,24.40
2023-06-15T19:57:18.432Z,24.30
2023-06-15T20:02:22.575Z,24.30
2023-06-15T20:07:28.163Z,24.20
2023-06-15T20:12:34.510Z,24.20
2023-06-15T20:17:38.738Z,24.10
2023-06-15T20:22:44.102Z,24.00
2023-06-15T20:27:48.089Z,24.00
2023-06-15T20:32:52.114Z,23.90
2023-06-15T20:37:57.732Z,23.90
2023-06-15T20:43:01.821Z,23.80
2023-06-15T20:48:06.582Z,23.70
2023-06-15T20:53:12.079Z,23.70
2023-06-15T20:58:16.955Z,23.60
2023-06-15T21:03:21.245Z,23.60
2023-06-15T21:08:26.870Z,23.50
2023-06-15T21:13:32.097Z,23.40
2023-06-15T21:18:36.604Z,23.40
2023-06-15T21:23:44.133Z,23.30
2023-06-15T21:28:49.384Z,23.30
2023-06-15T21:33:53.382Z,23.20
2023-06-15T21:38:58.852Z,23.20
2023-06-15T21:44:03.442Z,23.10
2023-06-15T21:49:07.690Z,23.10
2023-06-15T21:54:13.107Z,23.00
2023-06-15T21:59:17.164Z,23.00
2023-06-15T22:04:21.153Z,23.00
2023-06-15T22:09:26.655Z,22.90
2023-06-15T22:14:31.558Z,22.80
2023-06-15T22:19:36.961Z,22.80
2023-06-15T22:24:43.305Z,22.70
2023-06-15T22:29:51.972Z,22.70
2023-06-15T22:34:56.222Z,22.70
2023-06-15T22:40:01.618Z,22.60
2023-06-15T22:45:06.830Z,22.60
2023-06-15T22:50:14.163Z,22.50
2023-06-15T22:55:19.606Z,22.50
2023-06-15T23:00:23.902Z,22.40
2023-06-15T23:05:27.979Z,22.40
2023-06-15T23:10:37.148Z,22.40
2023-06-15T23:15:41.771Z,22.30
2023-06-15T23:20:45.928Z,22.30
2023-06-15T23:25:53.008Z,22.20
2023-06-15T23:30:57.241Z,22.20
2023-06-15T23:36:01.298Z,22.20
2023-06-15T23:41:07.148Z,22.10
2023-06-15T23:46:11.503Z,22.10
2023-06-15T23:51:15.835Z,22.00
2023-06-15T23:56:21.221Z,21.90
